Terminal Aerodrome Forecast
Issued by NWS Sterling, VA

Home | Current Version | Previous Version | Text Only | Print | Product List | Glossary On
Versions: 1 2 3 4 5 6 7 8 9 10 11 12 13
273
FTUS41 KLWX 241135
TAFMRB
TAF
KMRB 241135Z 2412/2512 VRB03KT P6SM SCT080
     FM241500 18007KT P6SM SCT080
     FM241800 18012G21KT P6SM SCT080
     FM250000 17008KT P6SM SCT200
     FM250600 17007KT P6SM BKN025
     FM250900 17008KT P6SM BKN015=

USA.gov is the U.S. government's official web portal to all federal, state and local government web resources and services.